createdAt,value
2022-07-28T00:31:44.935Z,0
2022-07-28T00:32:25.767Z,0
2022-07-28T00:33:06.312Z,0
2022-07-28T00:33:46.772Z,0
2022-07-28T00:34:27.269Z,0
2022-07-28T00:35:08.207Z,0
2022-07-28T00:35:48.535Z,0
2022-07-28T00:36:28.682Z,0
2022-07-28T00:37:09.183Z,0
2022-07-28T00:37:49.620Z,0
2022-07-28T00:44:34.835Z,0
2022-07-28T00:45:15.312Z,0
2022-07-28T00:45:55.838Z,0
2022-07-28T00:46:36.363Z,0
2022-07-28T00:47:16.768Z,0
2022-07-28T00:47:57.325Z,0
2022-07-28T00:48:37.780Z,0
2022-07-28T00:49:18.351Z,0
2022-07-28T00:49:58.761Z,0
2022-07-28T00:50:39.289Z,0
2022-07-28T00:51:19.782Z,0
2022-07-28T00:58:04.779Z,0
2022-07-28T00:58:45.278Z,0
2022-07-28T00:59:25.842Z,0
2022-07-28T01:00:06.316Z,0
2022-07-28T01:00:46.831Z,0
2022-07-28T01:01:27.420Z,0
2022-07-28T01:02:08.035Z,0
2022-07-28T01:02:48.478Z,0
2022-07-28T01:04:09.352Z,0
2022-07-28T01:04:49.855Z,0
2022-07-28T01:11:42.980Z,0
2022-07-28T01:12:15.305Z,0
2022-07-28T01:12:55.753Z,0
2022-07-28T01:13:36.251Z,0
2022-07-28T01:14:16.975Z,0
2022-07-28T01:14:57.164Z,0
2022-07-28T01:15:37.699Z,0
2022-07-28T01:16:18.302Z,0
2022-07-28T01:16:58.739Z,0
2022-07-28T01:17:39.296Z,0
2022-07-28T01:18:19.820Z,0
2022-07-28T01:25:04.771Z,0
2022-07-28T01:25:48.052Z,0
2022-07-28T01:26:25.811Z,0
2022-07-28T01:27:06.320Z,0
2022-07-28T01:27:47.728Z,0
2022-07-28T01:28:28.147Z,0
2022-07-28T01:29:08.670Z,0
2022-07-28T01:29:49.099Z,0
2022-07-28T01:30:29.650Z,0
2022-07-28T01:37:55.011Z,0
2022-07-28T01:38:35.543Z,0
2022-07-28T01:39:16.009Z,0
2022-07-28T01:39:56.524Z,0
2022-07-28T01:40:36.982Z,0
2022-07-28T01:41:17.430Z,0
2022-07-28T01:41:57.914Z,0
2022-07-28T01:42:38.388Z,0
2022-07-28T01:43:18.912Z,0
2022-07-28T01:43:59.303Z,0
2022-07-28T01:44:39.779Z,0
2022-07-28T01:51:24.880Z,0
2022-07-28T01:52:05.433Z,0
2022-07-28T01:52:45.887Z,0
2022-07-28T01:53:26.397Z,0
2022-07-28T01:54:06.907Z,0
2022-07-28T01:54:47.326Z,0
2022-07-28T01:55:27.836Z,0
2022-07-28T01:56:08.295Z,0
2022-07-28T01:56:48.855Z,0
2022-07-28T01:57:29.312Z,0
2022-07-28T02:04:54.673Z,0
2022-07-28T02:05:35.169Z,0
2022-07-28T02:06:15.562Z,0
2022-07-28T02:06:56.032Z,0
2022-07-28T02:07:36.554Z,0
2022-07-28T02:08:17.125Z,0
2022-07-28T02:08:57.550Z,0
2022-07-28T02:09:38.021Z,0
2022-07-28T02:10:18.582Z,0
2022-07-28T02:10:59.026Z,0
2022-07-28T02:11:39.542Z,0
2022-07-28T02:19:04.860Z,0
2022-07-28T02:19:45.362Z,0
2022-07-28T02:20:25.828Z,0
2022-07-28T02:21:06.319Z,0
2022-07-28T02:21:46.844Z,0
2022-07-28T02:22:27.371Z,0
2022-07-28T02:23:07.867Z,0
2022-07-28T02:23:48.337Z,0
2022-07-28T02:24:28.826Z,0
2022-07-28T02:25:09.327Z,0
2022-07-28T02:25:49.807Z,0
2022-07-28T02:32:34.883Z,0
2022-07-28T02:33:15.366Z,0
2022-07-28T02:33:59.117Z,0
2022-07-28T02:34:36.419Z,0
2022-07-28T02:35:16.888Z,0
2022-07-28T02:35:57.557Z,0
2022-07-28T02:36:37.877Z,0
2022-07-28T02:37:18.354Z,0
2022-07-28T02:37:58.884Z,0
2022-07-28T02:38:39.352Z,0
2022-07-28T02:46:04.929Z,0
2022-07-28T02:46:45.488Z,0
2022-07-28T02:47:25.877Z,0
2022-07-28T02:48:06.344Z,0
2022-07-28T02:48:46.879Z,0
2022-07-28T02:49:27.331Z,0
2022-07-28T02:50:07.864Z,0
2022-07-28T02:50:48.290Z,0
2022-07-28T02:51:28.756Z,0
2022-07-28T02:52:09.305Z,0
2022-07-28T02:52:49.754Z,0
2022-07-28T02:59:34.591Z,0
2022-07-28T03:00:15.084Z,0
2022-07-28T03:00:55.562Z,0
2022-07-28T03:01:36.136Z,0
2022-07-28T03:02:16.561Z,0
2022-07-28T03:02:57.018Z,0
2022-07-28T03:03:40.270Z,0
2022-07-28T03:04:18.146Z,0
2022-07-28T03:04:58.488Z,0
2022-07-28T03:05:39.030Z,0
2022-07-28T03:06:19.560Z,0
2022-07-28T03:07:00.026Z,0
2022-07-28T03:13:44.822Z,0
2022-07-28T03:14:25.317Z,0
2022-07-28T03:15:05.827Z,0
2022-07-28T03:15:46.314Z,0
2022-07-28T03:16:26.798Z,0
2022-07-28T03:17:07.359Z,0
2022-07-28T03:17:47.711Z,0
2022-07-28T03:18:28.234Z,0
2022-07-28T03:19:08.786Z,0
2022-07-28T03:19:49.240Z,4
2022-07-28T03:27:14.749Z,4
2022-07-28T03:27:55.249Z,4
2022-07-28T03:28:35.818Z,4
2022-07-28T03:29:16.247Z,4
2022-07-28T03:29:59.153Z,4
2022-07-28T03:30:37.280Z,4
2022-07-28T03:31:17.837Z,4
2022-07-28T03:31:58.244Z,8
2022-07-28T03:32:38.809Z,8
2022-07-28T03:33:19.238Z,8
2022-07-28T03:33:59.809Z,8
2022-07-28T03:41:21.751Z,20
2022-07-28T03:42:01.899Z,24
2022-07-28T03:42:42.480Z,24
2022-07-28T03:43:22.853Z,28
2022-07-28T03:44:03.398Z,28
2022-07-28T03:44:43.885Z,32
2022-07-28T03:45:24.379Z,32
2022-07-28T03:46:07.561Z,36
2022-07-28T03:46:45.358Z,36
2022-07-28T03:47:25.831Z,40
2022-07-28T03:48:06.255Z,40
2022-07-28T03:54:51.176Z,68
2022-07-28T03:55:31.638Z,68
2022-07-28T03:56:12.173Z,68
2022-07-28T03:56:52.677Z,76
2022-07-28T03:57:33.149Z,76
2022-07-28T03:58:13.687Z,80
2022-07-28T03:58:54.143Z,88
2022-07-28T03:59:34.685Z,92
2022-07-28T04:00:15.124Z,96
2022-07-28T04:00:55.724Z,104
2022-07-28T04:01:36.137Z,108
2022-07-28T04:09:01.421Z,208
2022-07-28T04:09:41.936Z,220
2022-07-28T04:10:22.357Z,236
2022-07-28T04:11:03.064Z,252
2022-07-28T04:11:43.403Z,268
2022-07-28T04:12:23.911Z,284
2022-07-28T04:13:04.475Z,300
2022-07-28T04:14:25.660Z,344
2022-07-28T04:15:05.900Z,368
2022-07-28T04:15:46.384Z,384
2022-07-28T04:21:51.254Z,408
2022-07-28T04:22:31.763Z,424
2022-07-28T04:23:12.216Z,444
2022-07-28T04:23:52.809Z,464
2022-07-28T04:24:33.249Z,488
2022-07-28T04:25:13.739Z,512
2022-07-28T04:25:54.178Z,536
2022-07-28T04:26:35.501Z,580
2022-07-28T04:27:16.045Z,700
2022-07-28T04:34:41.319Z,888
2022-07-28T04:35:21.842Z,972
2022-07-28T04:36:02.359Z,1308
2022-07-28T04:36:42.904Z,1860
2022-07-28T04:37:23.416Z,2272
2022-07-28T04:38:03.883Z,2432
2022-07-28T04:38:44.311Z,2592
2022-07-28T04:39:24.880Z,3032
2022-07-28T04:40:05.255Z,3260
2022-07-28T04:40:45.765Z,3292
2022-07-28T04:48:11.136Z,3028
2022-07-28T04:48:51.755Z,3084
2022-07-28T04:49:32.165Z,3364
2022-07-28T04:50:12.673Z,3244
2022-07-28T04:50:53.515Z,3184
2022-07-28T04:51:33.637Z,2916
2022-07-28T04:52:14.102Z,2732
2022-07-28T04:52:54.658Z,3632
2022-07-28T04:53:35.173Z,4380
2022-07-28T04:54:16.306Z,5308
2022-07-28T04:54:56.115Z,5672
2022-07-28T05:01:41.207Z,10100
2022-07-28T05:02:21.563Z,10504
2022-07-28T05:03:02.079Z,10260
2022-07-28T05:05:17.440Z,3292
2022-07-28T05:05:58.395Z,4040
2022-07-28T05:06:38.839Z,2972
2022-07-28T05:07:19.309Z,2152
2022-07-28T05:07:59.832Z,2136
2022-07-28T05:11:25.492Z,1932
2022-07-28T05:12:06.101Z,1896
2022-07-28T05:12:46.611Z,1856
2022-07-28T05:13:33.333Z,1824
2022-07-28T05:14:07.703Z,1792
2022-07-28T05:14:48.162Z,1776
2022-07-28T05:15:28.671Z,1760
2022-07-28T05:16:09.394Z,1752
2022-07-28T05:16:49.867Z,1744
2022-07-28T05:23:36.324Z,1856
2022-07-28T05:24:17.304Z,1840
2022-07-28T05:24:57.383Z,1824
2022-07-28T05:25:37.984Z,1796
2022-07-28T05:26:18.482Z,1812
2022-07-28T05:26:58.907Z,1764
2022-07-28T05:27:39.538Z,1772
2022-07-28T05:28:20.204Z,1788
2022-07-28T05:33:44.934Z,2460
2022-07-28T05:34:26.128Z,2540
2022-07-28T05:35:06.562Z,2956
2022-07-28T05:35:47.122Z,3080
2022-07-28T05:36:28.440Z,2756
2022-07-28T05:38:46.557Z,2972
2022-07-28T05:39:27.035Z,2872
2022-07-28T05:40:07.532Z,2820
2022-07-28T05:40:48.010Z,2908
2022-07-28T05:41:28.544Z,3032
2022-07-28T05:42:49.455Z,10856
2022-07-28T05:43:29.901Z,9964
2022-07-28T05:44:10.476Z,6664
2022-07-28T05:44:50.823Z,8880
2022-07-28T05:45:31.504Z,10168
2022-07-28T05:52:16.428Z,17440
2022-07-28T05:52:56.896Z,16416
2022-07-28T06:32:17.133Z,40096
2022-07-28T06:32:57.645Z,39744
2022-07-28T06:33:39.610Z,39552
2022-07-28T06:34:20.462Z,42240
2022-07-28T06:35:02.079Z,43584
2022-07-28T06:39:07.018Z,47072
2022-07-28T06:39:47.563Z,46816
2022-07-28T06:40:28.041Z,45024
2022-07-28T06:41:08.673Z,45632
2022-07-28T06:41:49.860Z,47200
2022-07-28T06:42:37.127Z,47072
2022-07-28T06:43:18.944Z,45920
2022-07-28T06:43:59.564Z,45664
2022-07-28T06:44:57.714Z,48544
2022-07-28T06:45:21.867Z,47648
2022-07-28T06:46:02.871Z,41792
2022-07-28T06:48:47.203Z,35456
2022-07-28T06:49:27.893Z,32160
2022-07-28T06:50:24.636Z,30144
2022-07-28T06:50:49.933Z,28064
2022-07-28T06:51:31.151Z,24768
2022-07-28T06:52:11.717Z,26304
2022-07-28T06:58:17.218Z,25920
2022-07-28T06:58:57.565Z,26048
2022-07-28T06:59:38.145Z,22112
2022-07-28T07:00:19.054Z,24160
2022-07-28T07:01:01.339Z,24960
2022-07-28T07:05:05.839Z,31584
2022-07-28T07:05:46.673Z,29440
2022-07-28T07:06:27.126Z,26304
2022-07-28T07:07:14.843Z,24352
2022-07-28T07:07:48.969Z,23648
2022-07-28T07:08:29.600Z,23424
2022-07-28T07:10:51.314Z,24288
2022-07-28T07:11:32.692Z,24480
2022-07-28T07:12:14.216Z,24480
2022-07-28T07:12:54.768Z,24736
2022-07-28T07:13:35.593Z,25024
2022-07-28T07:14:16.724Z,24800
2022-07-28T07:14:57.400Z,23872
2022-07-28T07:16:33.215Z,20768
2022-07-28T07:17:23.009Z,20064
2022-07-28T07:18:06.325Z,19136
2022-07-28T07:20:25.668Z,16928
2022-07-28T07:23:45.257Z,14664
2022-07-28T07:24:29.144Z,14352
2022-07-28T07:25:09.617Z,14448
2022-07-28T07:25:50.176Z,14316
2022-07-28T07:26:31.141Z,13928
2022-07-28T07:27:11.657Z,13452
2022-07-28T07:27:52.199Z,12700
2022-07-28T07:28:32.942Z,12104
2022-07-28T07:29:13.662Z,11764
2022-07-28T07:32:46.471Z,6004
2022-07-28T07:36:31.249Z,5576
2022-07-28T07:38:57.130Z,5340
2022-07-28T07:39:38.940Z,5204
2022-07-28T07:40:20.288Z,4984
2022-07-28T07:41:01.211Z,4764
2022-07-28T07:41:41.633Z,4548
2022-07-28T07:46:26.574Z,3716
2022-07-28T07:47:07.210Z,3684
2022-07-28T07:47:47.864Z,3524
2022-07-28T07:48:28.383Z,3524
2022-07-28T07:49:08.959Z,3520
2022-07-28T07:49:49.552Z,3476
2022-07-28T07:50:30.071Z,3424
2022-07-28T07:51:15.435Z,3396
2022-07-28T07:51:51.311Z,3380
2022-07-28T07:57:17.063Z,3252
2022-07-28T07:57:57.496Z,3212
2022-07-28T07:58:39.358Z,3144
2022-07-28T07:59:19.125Z,3000
2022-07-28T08:00:00.493Z,2976
2022-07-28T08:00:41.474Z,3012
2022-07-28T08:05:21.899Z,2792
2022-07-28T08:06:02.433Z,2772
2022-07-28T08:06:42.974Z,2740
2022-07-28T08:07:23.586Z,2712
2022-07-28T08:08:04.129Z,2696
2022-07-28T08:08:48.213Z,2668
2022-07-28T08:09:25.377Z,2656
2022-07-28T08:10:05.961Z,2644
2022-07-28T08:10:46.505Z,2644
2022-07-28T08:16:51.640Z,2436
2022-07-28T08:17:32.245Z,2412
2022-07-28T08:18:12.873Z,2400
2022-07-28T08:18:53.411Z,2384
2022-07-28T08:19:33.899Z,2364
2022-07-28T08:20:14.494Z,2348
2022-07-28T08:20:54.989Z,2344
2022-07-28T08:21:35.549Z,2328
2022-07-28T08:22:16.098Z,2300
2022-07-28T08:22:56.646Z,2288
2022-07-28T08:29:01.607Z,2188
2022-07-28T08:29:42.239Z,2188
2022-07-28T08:30:24.472Z,2184
2022-07-28T08:31:03.391Z,2176
2022-07-28T08:31:43.874Z,2144
2022-07-28T08:32:24.361Z,2136
2022-07-28T08:33:04.992Z,2156
2022-07-28T08:33:53.184Z,2152
2022-07-28T08:34:26.639Z,2148
2022-07-28T08:35:31.478Z,2128
2022-07-28T08:39:51.898Z,2116
2022-07-28T08:40:32.751Z,2108
2022-07-28T08:41:12.922Z,2100
2022-07-28T08:41:53.524Z,2100
2022-07-28T08:42:34.042Z,2076
2022-07-28T08:43:14.659Z,2080
2022-07-28T08:43:55.113Z,2060
2022-07-28T08:44:35.704Z,2076
2022-07-28T08:45:16.202Z,2072
2022-07-28T08:45:58.599Z,2072
2022-07-28T08:52:01.718Z,1960
2022-07-28T08:52:42.280Z,1944
2022-07-28T08:53:22.841Z,1956
2022-07-28T08:54:03.568Z,1952
2022-07-28T08:54:44.776Z,1952
2022-07-28T08:55:25.517Z,1956
2022-07-28T08:56:06.732Z,1948
2022-07-28T09:00:51.655Z,1972
2022-07-28T09:01:38.719Z,1968
2022-07-28T09:02:12.864Z,1952
2022-07-28T09:02:53.400Z,1964
2022-07-28T09:03:34.025Z,1960
2022-07-28T09:04:14.823Z,1956
2022-07-28T09:04:55.099Z,1952
2022-07-28T09:05:35.719Z,1948
2022-07-28T09:06:16.312Z,1944
2022-07-28T09:06:56.833Z,1944
2022-07-28T09:12:21.738Z,1936
2022-07-28T09:13:02.247Z,1936
2022-07-28T09:13:42.816Z,1908
2022-07-28T09:14:23.299Z,1884
2022-07-28T09:15:03.723Z,1868
2022-07-28T09:15:44.300Z,1856
2022-07-28T09:16:24.799Z,1852
2022-07-28T09:17:05.655Z,1864
2022-07-28T09:17:45.798Z,1864
2022-07-28T09:18:26.260Z,1860
2022-07-28T09:19:06.742Z,1856
2022-07-28T09:25:11.582Z,1816
2022-07-28T09:25:52.098Z,1808
2022-07-28T09:26:32.638Z,1816
2022-07-28T09:27:13.204Z,1828
2022-07-28T09:27:53.787Z,1816
2022-07-28T09:28:34.581Z,1828
2022-07-28T09:29:15.147Z,1820
2022-07-28T09:29:55.728Z,1808
2022-07-28T09:30:36.160Z,1812
2022-07-28T09:31:16.844Z,1812
2022-07-28T09:37:26.603Z,1756
2022-07-28T09:38:02.430Z,1760
2022-07-28T09:38:42.984Z,1752
2022-07-28T09:39:23.555Z,1732
2022-07-28T09:40:04.282Z,1724
2022-07-28T09:40:44.747Z,1712
2022-07-28T09:41:25.305Z,1696
2022-07-28T09:42:05.822Z,1700
2022-07-28T09:42:46.320Z,1708
2022-07-28T09:43:26.920Z,1704
2022-07-28T09:48:51.821Z,1676
2022-07-28T09:49:32.309Z,1664
2022-07-28T09:50:12.747Z,1676
2022-07-28T09:50:53.399Z,1660
2022-07-28T09:51:33.967Z,1656
2022-07-28T09:52:14.503Z,1640
2022-07-28T09:52:55.084Z,1636
2022-07-28T09:53:35.653Z,1576
2022-07-28T09:54:16.569Z,1616
2022-07-28T09:54:56.789Z,1612
2022-07-28T10:01:02.062Z,1676
2022-07-28T10:01:42.620Z,1656
2022-07-28T10:02:23.387Z,1660
2022-07-28T10:03:03.988Z,1668
2022-07-28T10:03:44.530Z,1680
2022-07-28T10:04:25.083Z,1680
2022-07-28T10:05:05.596Z,1672
2022-07-28T10:05:48.417Z,1672
2022-07-28T10:06:26.673Z,1676
2022-07-28T10:13:11.944Z,1612
2022-07-28T10:13:52.547Z,1596
2022-07-28T10:14:33.222Z,1588
2022-07-28T10:15:13.647Z,1572
2022-07-28T10:15:54.212Z,1564
2022-07-28T10:16:34.679Z,1516
2022-07-28T10:17:15.205Z,1568
2022-07-28T10:17:55.758Z,1432
2022-07-28T10:18:36.210Z,1456
2022-07-28T10:19:16.712Z,1572
2022-07-28T10:23:21.970Z,1476
2022-07-28T10:24:02.481Z,1516
2022-07-28T10:24:42.969Z,1576
2022-07-28T10:25:23.467Z,1576
2022-07-28T10:26:04.018Z,1564
2022-07-28T10:26:44.591Z,1564
2022-07-28T10:27:25.053Z,1556
2022-07-28T10:28:05.507Z,1560
2022-07-28T10:30:36.134Z,1564
2022-07-28T10:31:16.477Z,1564
2022-07-28T10:31:57.036Z,1560
2022-07-28T10:32:37.549Z,1584
2022-07-28T10:33:18.000Z,1592
2022-07-28T10:34:00.530Z,1588
2022-07-28T10:34:41.094Z,1572
2022-07-28T10:35:22.249Z,1588
2022-07-28T10:40:47.777Z,1480
2022-07-28T10:41:30.005Z,1512
2022-07-28T10:42:09.636Z,1520
2022-07-28T10:42:50.090Z,1528
2022-07-28T10:43:30.582Z,1568
2022-07-28T10:44:11.202Z,1580
2022-07-28T10:44:51.665Z,1592
2022-07-28T10:45:48.488Z,1568
2022-07-28T10:48:51.866Z,1448
2022-07-28T10:49:39.426Z,1412
2022-07-28T10:50:20.968Z,1396
2022-07-28T10:51:01.646Z,1392
2022-07-28T10:58:27.373Z,1380
2022-07-28T10:59:07.955Z,1400
2022-07-28T10:59:48.695Z,1408
2022-07-28T11:00:37.811Z,1412
2022-07-28T11:01:13.515Z,1296
2022-07-28T11:01:50.573Z,1240
2022-07-28T11:02:30.520Z,1360
2022-07-28T11:03:13.671Z,1424
2022-07-28T11:03:51.659Z,1472
2022-07-28T11:04:32.152Z,1388
2022-07-28T11:09:57.185Z,1508
2022-07-28T11:10:37.646Z,1496
2022-07-28T11:11:18.281Z,1524
2022-07-28T11:11:59.108Z,1504
2022-07-28T11:12:39.357Z,1568
2022-07-28T11:13:19.941Z,1560
2022-07-28T11:14:00.536Z,1752
2022-07-28T11:14:41.108Z,1700
2022-07-28T11:15:21.508Z,1704
2022-07-28T11:16:02.242Z,1720
2022-07-28T11:21:27.705Z,1792
2022-07-28T11:22:08.216Z,1784
2022-07-28T11:22:48.689Z,1820
2022-07-28T11:23:29.230Z,1812
2022-07-28T11:24:09.791Z,1816
2022-07-28T11:24:50.333Z,1824
2022-07-28T11:25:30.873Z,1804
2022-07-28T11:26:11.337Z,1824
2022-07-28T11:26:51.890Z,1864
2022-07-28T11:35:30.183Z,1832
2022-07-28T11:36:16.855Z,1816
2022-07-28T11:40:14.684Z,1864
2022-07-28T11:40:56.637Z,1672
2022-07-28T11:41:36.735Z,1640
2022-07-28T11:42:19.268Z,1636
2022-07-28T11:45:37.921Z,1768
2022-07-28T11:46:12.914Z,1744
2022-07-28T11:46:53.594Z,1736
2022-07-28T11:47:34.059Z,1712
2022-07-28T11:48:14.709Z,1540
2022-07-28T11:48:55.135Z,1704
2022-07-28T11:50:16.238Z,1720
2022-07-28T11:50:56.953Z,1696
2022-07-28T12:32:27.672Z,1708
2022-07-28T12:33:08.097Z,1684
2022-07-28T12:33:48.617Z,1664
2022-07-28T12:34:29.598Z,1644
2022-07-28T12:35:10.100Z,1632
2022-07-28T12:35:50.466Z,1648
2022-07-28T12:36:31.009Z,1676
2022-07-28T12:37:12.962Z,1716
2022-07-28T12:40:37.209Z,1884
2022-07-28T12:41:17.726Z,1896
2022-07-28T12:41:58.276Z,1912
2022-07-28T12:42:43.012Z,1928
2022-07-28T12:48:07.582Z,1968
2022-07-28T12:48:48.439Z,1964
2022-07-28T12:49:28.875Z,1964
2022-07-28T12:50:09.706Z,1976
2022-07-28T12:50:49.941Z,1984
2022-07-28T12:51:30.439Z,1988
2022-07-28T12:52:11.014Z,1992
2022-07-28T12:52:51.482Z,2012
2022-07-28T12:53:35.081Z,2020
2022-07-28T12:54:57.520Z,2044
2022-07-28T12:55:38.098Z,2052
2022-07-28T12:56:21.440Z,2052
2022-07-28T12:57:02.131Z,2044
2022-07-28T13:03:07.258Z,1972
2022-07-28T13:03:52.070Z,1976
2022-07-28T13:04:28.283Z,2004
2022-07-28T13:05:08.912Z,1976
2022-07-28T13:05:49.493Z,1944
2022-07-28T13:06:29.883Z,1960
2022-07-28T13:07:10.434Z,1960
2022-07-28T13:07:50.915Z,1964
2022-07-28T13:08:31.483Z,1960
2022-07-28T13:09:15.025Z,1932
2022-07-28T13:15:57.570Z,2056
2022-07-28T13:16:38.101Z,1892
2022-07-28T13:17:18.623Z,1860
2022-07-28T13:17:59.178Z,2124
2022-07-28T13:18:41.161Z,1760
2022-07-28T13:19:21.801Z,1748
2022-07-28T13:20:02.359Z,1744
2022-07-28T13:24:47.416Z,1676
2022-07-28T13:25:28.114Z,1676
2022-07-28T13:26:08.774Z,1688
2022-07-28T13:26:49.369Z,1700
2022-07-28T13:27:29.920Z,1704
2022-07-28T13:28:10.465Z,1696
2022-07-28T13:28:51.212Z,1696
2022-07-28T13:29:31.867Z,1700
2022-07-28T13:34:17.900Z,1748
2022-07-28T13:34:58.015Z,1752
2022-07-28T13:35:38.776Z,1760
2022-07-28T13:36:19.215Z,1768
2022-07-28T13:36:59.871Z,1768
2022-07-28T13:37:40.376Z,1776
2022-07-28T13:38:21.101Z,1784
2022-07-28T13:39:01.991Z,1788
2022-07-28T13:45:34.886Z,1768
2022-07-28T13:46:15.461Z,1744
2022-07-28T13:46:58.262Z,1712
2022-07-28T13:47:39.014Z,1684
2022-07-28T13:48:19.211Z,1656
2022-07-28T13:49:00.407Z,1648
2022-07-28T13:53:44.958Z,1596
2022-07-28T13:54:26.308Z,1588
2022-07-28T13:55:06.830Z,1588
2022-07-28T13:55:47.348Z,1588
2022-07-28T13:56:28.054Z,1592
2022-07-28T13:57:08.666Z,1592
2022-07-28T13:57:49.438Z,1588
2022-07-28T13:58:29.754Z,1584
2022-07-28T14:05:12.706Z,1600
2022-07-28T14:05:52.751Z,1608
2022-07-28T14:06:34.174Z,1624
2022-07-28T14:08:36.062Z,1624
2022-07-28T14:09:17.940Z,1616
2022-07-28T14:09:58.256Z,1612
2022-07-28T14:10:38.908Z,1612
2022-07-28T14:15:24.030Z,1668
2022-07-28T14:16:06.888Z,1676
2022-07-28T14:16:47.922Z,1680
2022-07-28T14:17:45.437Z,1688
2022-07-28T14:18:07.662Z,1696
2022-07-28T14:18:50.206Z,1704
2022-07-28T14:22:54.164Z,1760
2022-07-28T14:23:34.873Z,1760
2022-07-28T14:24:15.771Z,1760
2022-07-28T14:24:56.094Z,1752
2022-07-28T14:25:48.490Z,1752
2022-07-28T14:26:34.805Z,1740
2022-07-28T14:26:58.157Z,1724
2022-07-28T14:27:38.828Z,1704
2022-07-28T14:34:24.149Z,1660
2022-07-28T14:35:04.685Z,1660
2022-07-28T14:35:45.217Z,1660
2022-07-28T14:36:25.703Z,1644
2022-07-28T14:37:09.149Z,1624
2022-07-28T14:38:23.461Z,1596
2022-07-28T14:38:52.724Z,1564
2022-07-28T14:39:12.351Z,1536
2022-07-28T14:39:48.458Z,1528
2022-07-28T14:46:33.854Z,1640
2022-07-28T14:47:14.430Z,1620
2022-07-28T14:47:56.701Z,1572
2022-07-28T14:48:37.115Z,1552
2022-07-28T14:49:17.914Z,1544
2022-07-28T14:49:58.736Z,1540
2022-07-28T14:50:39.272Z,1552
2022-07-28T14:55:00.321Z,1524
2022-07-28T14:55:42.615Z,1540
2022-07-28T14:56:23.980Z,1536
2022-07-28T14:59:47.162Z,1588
2022-07-28T15:00:29.645Z,1616
2022-07-28T15:01:10.988Z,1640
2022-07-28T15:01:52.048Z,1668
2022-07-28T15:03:13.377Z,1684
2022-07-28T15:05:45.309Z,1688
2022-07-28T15:06:26.507Z,1692
2022-07-28T15:07:06.947Z,1672
2022-07-28T15:07:47.686Z,1652
2022-07-28T15:08:29.365Z,1640
2022-07-28T15:09:08.905Z,1624
2022-07-28T15:12:34.630Z,1508
2022-07-28T15:13:15.869Z,1492
2022-07-28T15:13:56.953Z,1476
2022-07-28T15:14:37.321Z,1468
2022-07-28T15:15:17.909Z,1460
2022-07-28T15:18:06.073Z,1436
2022-07-28T15:18:49.819Z,1432
2022-07-28T15:21:36.401Z,1396
2022-07-28T15:22:19.499Z,1400
2022-07-28T15:23:00.982Z,1404
2022-07-28T15:25:05.285Z,1392
2022-07-28T15:25:45.973Z,1384
2022-07-28T15:26:26.456Z,1384
2022-07-28T15:27:07.431Z,1380
2022-07-28T15:27:50.216Z,1372
2022-07-28T15:28:31.926Z,1364
2022-07-28T15:29:14.013Z,1356
2022-07-28T15:33:59.327Z,1348
2022-07-28T15:37:18.067Z,1356
2022-07-28T15:37:59.032Z,1352
2022-07-28T15:38:40.864Z,1348
2022-07-28T15:39:24.690Z,1344
2022-07-28T15:40:08.632Z,1336
2022-07-28T15:41:36.887Z,1328
2022-07-28T15:42:20.869Z,1328
2022-07-28T15:44:26.504Z,1308
2022-07-28T15:45:08.373Z,1300
2022-07-28T15:47:47.312Z,1264
2022-07-28T15:48:33.993Z,1252
2022-07-28T15:49:14.941Z,1236
2022-07-28T15:49:58.173Z,1228
2022-07-28T15:50:37.282Z,1212
2022-07-28T15:51:22.642Z,1200
2022-07-28T15:52:02.854Z,1192
2022-07-28T15:55:27.850Z,1156
2022-07-28T15:56:09.016Z,1152
2022-07-28T15:56:50.414Z,1144
2022-07-28T15:57:37.462Z,1140
2022-07-28T15:58:11.242Z,1132
2022-07-28T15:58:52.212Z,1128
2022-07-28T15:59:49.011Z,1116
2022-07-28T16:02:19.146Z,1100
2022-07-28T16:05:18.468Z,1088
2022-07-28T16:05:59.100Z,1084
2022-07-28T16:06:39.374Z,1084
2022-07-28T16:07:19.879Z,1076
2022-07-28T16:08:00.356Z,1072
2022-07-28T16:08:40.854Z,1064
2022-07-28T16:09:21.404Z,1060
2022-07-28T16:10:01.934Z,1052
2022-07-28T16:10:42.426Z,1044
2022-07-28T16:11:22.995Z,1036
2022-07-28T16:17:27.833Z,1008
2022-07-28T16:18:08.356Z,1004
2022-07-28T16:18:48.879Z,1004
2022-07-28T16:19:47.618Z,996
2022-07-28T16:20:10.556Z,984
2022-07-28T16:20:50.763Z,972
2022-07-28T16:21:31.247Z,964
2022-07-28T16:22:11.724Z,952
2022-07-28T16:22:52.237Z,952
2022-07-28T16:23:32.742Z,944
2022-07-28T16:30:18.084Z,916
2022-07-28T16:30:58.955Z,912
2022-07-28T16:31:43.395Z,912
2022-07-28T16:32:20.208Z,912
2022-07-28T16:33:00.706Z,912
2022-07-28T16:33:41.170Z,912
2022-07-28T16:34:21.740Z,908
2022-07-28T16:35:02.307Z,904
2022-07-28T16:35:42.814Z,900
2022-07-28T16:40:27.884Z,848
2022-07-28T16:41:08.399Z,840
2022-07-28T16:41:48.914Z,836
2022-07-28T16:42:29.480Z,828
2022-07-28T16:43:09.956Z,828
2022-07-28T16:43:50.367Z,824
2022-07-28T16:44:30.990Z,824
2022-07-28T16:45:51.972Z,820
2022-07-28T16:46:32.510Z,820
2022-07-28T16:47:12.954Z,820
2022-07-28T16:53:18.272Z,808
2022-07-28T16:53:58.706Z,808
2022-07-28T16:54:39.251Z,808
2022-07-28T16:55:23.322Z,804
2022-07-28T16:56:00.373Z,800
2022-07-28T16:56:40.801Z,800
2022-07-28T16:57:21.344Z,796
2022-07-28T16:58:01.830Z,792
2022-07-28T16:58:42.299Z,788
2022-07-28T16:59:22.855Z,780
2022-07-28T17:06:07.995Z,680
2022-07-28T17:06:48.449Z,676
2022-07-28T17:07:29.978Z,672
2022-07-28T17:08:10.444Z,660
2022-07-28T17:08:50.924Z,656
2022-07-28T17:09:31.450Z,648
2022-07-28T17:10:12.000Z,640
2022-07-28T17:16:18.234Z,584
2022-07-28T17:16:58.651Z,580
2022-07-28T17:17:39.164Z,576
2022-07-28T17:18:19.746Z,572
2022-07-28T17:19:00.419Z,568
2022-07-28T17:19:46.557Z,564
2022-07-28T17:20:21.303Z,560
2022-07-28T17:21:01.807Z,556
2022-07-28T17:21:42.502Z,548
2022-07-28T17:22:23.249Z,548
2022-07-28T17:28:28.164Z,532
2022-07-28T17:29:08.686Z,532
2022-07-28T17:29:49.196Z,528
2022-07-28T17:30:30.338Z,524
2022-07-28T17:31:10.356Z,520
2022-07-28T17:31:50.845Z,512
2022-07-28T17:32:31.439Z,512
2022-07-28T17:33:11.881Z,512
2022-07-28T17:33:52.431Z,512
2022-07-28T17:34:32.942Z,512
2022-07-28T17:40:37.796Z,508
2022-07-28T17:41:18.412Z,504
2022-07-28T17:41:58.867Z,492
2022-07-28T17:42:39.292Z,484
2022-07-28T17:43:19.842Z,472
2022-07-28T17:44:00.351Z,460
2022-07-28T17:44:40.838Z,444
2022-07-28T17:45:21.446Z,436
2022-07-28T17:46:02.780Z,424
2022-07-28T17:46:42.514Z,420
2022-07-28T17:47:22.934Z,408
2022-07-28T18:34:44.998Z,152
2022-07-28T18:35:25.471Z,148
2022-07-28T18:36:05.893Z,152
2022-07-28T18:36:46.379Z,148
2022-07-28T18:37:26.953Z,148
2022-07-28T18:38:07.386Z,148
2022-07-28T18:38:47.897Z,148
2022-07-28T18:43:12.673Z,144
2022-07-28T18:43:48.212Z,140
2022-07-28T18:44:28.887Z,140
2022-07-28T18:45:09.530Z,140
2022-07-28T18:45:50.158Z,136
2022-07-28T18:46:30.700Z,132
2022-07-28T18:47:11.130Z,132
2022-07-28T18:47:51.759Z,128
2022-07-28T18:48:32.474Z,128
2022-07-28T18:49:12.885Z,128
2022-07-28T18:55:57.699Z,104
2022-07-28T18:56:38.136Z,104
2022-07-28T18:57:18.823Z,100
2022-07-28T18:57:59.234Z,96
2022-07-28T18:58:39.733Z,96
2022-07-28T18:59:20.239Z,92
2022-07-28T19:00:00.790Z,92
2022-07-28T19:00:41.457Z,92
2022-07-28T19:01:22.192Z,88
2022-07-28T19:02:03.042Z,88
2022-07-28T19:07:28.945Z,72
2022-07-28T19:08:09.521Z,72
2022-07-28T19:08:50.005Z,68
2022-07-28T19:09:31.275Z,64
2022-07-28T19:10:10.993Z,64
2022-07-28T19:10:51.397Z,56
2022-07-28T19:11:31.945Z,52
2022-07-28T19:12:12.429Z,52
2022-07-28T19:12:53.787Z,44
2022-07-28T19:18:17.785Z,24
2022-07-28T19:18:58.752Z,24
2022-07-28T19:19:39.164Z,24
2022-07-28T19:20:20.609Z,20
2022-07-28T19:21:01.137Z,20
2022-07-28T19:21:42.995Z,20
2022-07-28T19:22:22.295Z,16
2022-07-28T19:23:05.242Z,16
2022-07-28T19:26:27.905Z,12
2022-07-28T19:27:08.430Z,12
2022-07-28T19:27:48.967Z,8
2022-07-28T19:28:29.407Z,8
2022-07-28T19:29:09.928Z,12
2022-07-28T19:29:50.442Z,12
2022-07-28T19:30:30.891Z,8
2022-07-28T19:31:11.762Z,8
2022-07-28T19:31:52.256Z,8